Latest Weather Observations for Thargomindah

IDQ60801

Issued at 11:02 am EST Monday 22 December 2014 (issued every 30 minutes, with the page automatically refreshed every 10 minutes)

About weather observations | Map of weather stations | Latest weather observations for QLD | Other Formats
Station Details ID: 045025 Name: THARGOMINDAH AIRPORT Lat: -27.99 Lon: 143.81 Height: 130.89 m
Data from the previous 72 hours. | See also: Recent months at Thargomindah
Date/Time
EST
Temp
°C
App
Temp
°C
Dew
Point
Rel
Hum
%
Delta-T
°C
Wind Press
QNH
hPa
Press
MSL
hPa
Rain
since 9 am
mm
Dir
 
Spd
km/h
Gust
km/h
Spd
kts
Gust
kts
22/11:00am 39.0 34.1 8.6 16 17.6 NW 24 35 13 19 1010.1 - 0.0
22/10:30am 38.2 32.9 9.7 18 16.7 NNW 28 41 15 22 1010.3 - 0.0
22/10:00am 38.0 32.1 10.4 19 16.3 NNW 32 50 17 27 1010.4 - 0.0
22/09:56am 37.6 31.6 10.0 19 16.2 N 32 50 17 27 1010.3 - 0.0
22/09:30am 36.7 30.5 10.1 20 15.6 NNW 33 44 18 24 1010.4 - 0.0
22/09:00am 36.0 30.2 10.9 22 14.9 N 32 43 17 23 1010.5 1009.4 0.0
22/08:30am 34.6 27.9 11.1 24 13.9 NNW 37 50 20 27 1010.6 - 0.0
22/08:00am 33.9 28.0 11.1 25 13.4 N 33 50 18 27 1010.3 - 0.0
22/07:30am 31.3 26.7 9.5 26 12.4 N 24 32 13 17 1010.3 - 0.0
22/07:00am 30.6 26.8 8.9 26 12.2 N 19 24 10 13 1009.9 - 0.0
22/06:30am 28.9 26.0 8.0 27 11.4 NNE 13 15 7 8 1009.5 - 0.0
22/06:00am 28.5 25.2 8.2 28 11.1 N 15 17 8 9 1008.9 1007.8 0.0
22/05:30am 27.7 24.7 7.5 28 10.9 N 13 17 7 9 1008.4 - 0.0
22/05:00am 27.2 23.8 6.0 26 11.1 N 13 15 7 8 1007.9 - 0.0
22/04:30am 26.7 23.3 3.9 23 11.5 N 11 13 6 7 1007.4 - 0.0
22/04:00am 27.6 23.4 4.0 22 12.0 N 15 17 8 9 1007.1 - 0.0
22/03:30am 25.8 22.1 -0.3 18 12.1 NNE 9 13 5 7 1006.9 - 0.0
22/03:00am 25.6 22.0 -2.1 16 12.4 ENE 7 9 4 5 1006.9 1005.9 0.0
22/02:30am 26.2 23.1 -2.4 15 12.8 SE 4 7 2 4 1007.1 - 0.0
22/02:00am 27.4 23.8 -2.4 14 13.5 ESE 7 11 4 6 1007.2 - 0.0
22/01:30am 27.9 24.3 -2.0 14 13.6 ESE 7 9 4 5 1007.6 - 0.0
22/01:00am 27.4 23.9 -1.5 15 13.3 ESE 7 9 4 5 1007.9 - 0.0
22/12:30am 27.7 23.6 -3.2 13 13.8 SSW 9 11 5 6 1008.3 - 0.0
22/12:00am 28.5 24.8 -2.6 13 14.1 ESE 7 9 4 5 1008.5 1007.4 0.0
 
Date/Time
EST
Temp
°C
App
Temp
°C
Dew
Point
Rel
Hum
%
Delta-T
°C
Wind Press
QNH
hPa
Press
MSL
hPa
Rain
since 9 am
mm
Dir
 
Spd
km/h
Gust
km/h
Spd
kts
Gust
kts
21/11:30pm 29.0 25.8 -3.2 12 14.5 SE 4 7 2 4 1008.7 - 0.0
21/11:00pm 30.1 26.5 -3.6 11 15.2 ESE 6 7 3 4 1008.7 - 0.0
21/10:30pm 31.8 27.4 -2.3 11 15.9 ESE 11 13 6 7 1008.6 - 0.0
21/10:00pm 30.5 26.4 0.0 14 14.7 SE 11 13 6 7 1008.5 - 0.0
21/09:30pm 30.5 27.2 -1.0 13 14.9 S 6 6 3 3 1008.3 - 0.0
21/09:00pm 32.5 29.0 -1.7 11 16.3 SSW 7 9 4 5 1008.4 1007.3 0.0
21/08:30pm 33.8 30.0 -3.5 9 17.3 SSW 7 7 4 4 1008.2 - 0.0
21/08:00pm 34.7 30.6 -2.8 9 17.8 SSW 9 11 5 6 1008.1 - 0.0
21/07:30pm 36.3 32.2 -3.2 8 18.8 WSW 9 11 5 6 1007.8 - 0.0
21/07:00pm 37.9 34.1 -3.8 7 19.9 W 7 9 4 5 1007.6 - 0.0
21/06:30pm 39.4 35.0 -2.7 7 20.6 W 11 20 6 11 1007.3 - 0.0
21/06:00pm 39.8 35.4 -2.4 7 20.9 WNW 11 19 6 10 1007.2 1006.2 0.0
21/05:30pm 40.0 33.9 -2.3 7 20.9 WNW 20 30 11 16 1007.1 - 0.0
21/05:00pm 39.8 35.8 -2.4 7 20.8 SSW 9 17 5 9 1007.1 - 0.0
21/04:30pm 39.9 35.3 -4.4 6 21.2 NW 11 22 6 12 1007.2 - 0.0
21/04:00pm 40.0 33.9 -2.3 7 20.9 W 20 32 11 17 1007.6 - 0.0
21/03:30pm 40.6 36.3 -1.9 7 21.2 NW 11 15 6 8 1008.1 - 0.0
21/03:00pm 41.1 35.7 -1.5 7 21.5 WNW 17 32 9 17 1008.6 1007.5 0.0
21/02:30pm 39.3 35.2 -2.8 7 20.6 NNE 9 24 5 13 1008.9 - 0.0
21/02:00pm 39.9 34.4 -2.4 7 20.9 W 17 30 9 16 1009.3 - 0.0
21/01:30pm 39.5 35.3 -0.8 8 20.3 NNE 11 22 6 12 1009.8 - 0.0
21/01:00pm 37.9 33.2 -2.0 8 19.6 NNW 13 24 7 13 1010.3 - 0.0
21/12:30pm 39.3 34.3 -1.0 8 20.2 N 15 28 8 15 1010.8 - 0.0
21/12:00pm 37.5 33.1 -2.3 8 19.4 N 11 19 6 10 1011.4 1010.2 0.0
21/11:30am 37.3 32.5 -2.4 8 19.3 WNW 13 24 7 13 1011.6 - 0.0
21/11:00am 36.1 31.8 -1.7 9 18.4 NNE 11 20 6 11 1012.0 - 0.0
21/10:30am 36.2 32.3 -1.7 9 18.5 N 9 22 5 12 1012.0 - 0.0
21/10:00am 35.0 30.4 -1.1 10 17.6 NE 13 20 7 11 1012.3 - 0.0
21/09:30am 34.4 29.5 -0.3 11 17.1 ENE 15 24 8 13 1012.3 - 0.0
21/09:00am 33.2 27.1 -2.5 10 16.8 ENE 20 28 11 15 1012.5 1011.5 0.0
21/08:30am 32.2 26.3 -2.0 11 16.1 ENE 19 26 10 14 1012.7 - 0.0
21/08:00am 31.4 25.6 -1.4 12 15.5 E 19 26 10 14 1012.6 - 0.0
21/07:30am 29.8 23.7 -2.6 12 14.9 E 20 28 11 15 1012.5 - 0.0
21/07:00am 26.3 21.5 -2.4 15 12.8 ESE 13 17 7 9 1012.3 - 0.0
21/06:30am 24.7 20.5 -3.6 15 12.2 SE 9 15 5 8 1012.1 - 0.0
21/06:00am 23.2 19.3 -1.7 19 11.0 SSE 9 11 5 6 1011.8 1010.7 0.0
21/05:30am 22.8 18.8 -2.0 19 10.9 SE 9 11 5 6 1011.2 - 0.0
21/05:00am 23.1 18.8 -1.8 19 11.0 SE 11 13 6 7 1010.9 - 0.0
21/04:30am 23.1 19.3 -1.1 20 10.8 SE 9 11 5 6 1010.7 - 0.0
21/04:00am 23.2 19.3 -1.7 19 11.0 SE 9 11 5 6 1010.5 - 0.0
21/03:30am 23.8 19.4 -2.7 17 11.5 SE 11 13 6 7 1010.4 - 0.0
21/03:00am 24.3 19.8 -3.1 16 11.9 SSE 11 13 6 7 1010.3 1009.2 0.0
21/02:30am 24.8 20.0 -2.7 16 12.1 SSE 13 15 7 8 1010.4 - 0.0
21/02:00am 24.4 20.1 -1.4 18 11.6 SSE 11 13 6 7 1010.5 - 0.0
21/01:30am 24.4 20.0 -2.2 17 11.8 S 11 11 6 6 1010.7 - 0.0
21/01:00am 25.6 21.5 -2.9 15 12.6 SSE 9 11 5 6 1010.9 - 0.0
21/12:30am 26.5 22.4 -3.1 14 13.1 SSE 9 11 5 6 1011.1 - 0.0
21/12:00am 27.1 22.7 -2.7 14 13.4 SSE 11 15 6 8 1011.2 1010.1 0.0
 
Date/Time
EST
Temp
°C
App
Temp
°C
Dew
Point
Rel
Hum
%
Delta-T
°C
Wind Press
QNH
hPa
Press
MSL
hPa
Rain
since 9 am
mm
Dir
 
Spd
km/h
Gust
km/h
Spd
kts
Gust
kts
20/11:30pm 27.4 23.0 -2.4 14 13.5 SSE 11 13 6 7 1011.4 - 0.0
20/11:00pm 27.0 23.2 -0.9 16 12.9 S 9 9 5 5 1011.7 - 0.0
20/10:30pm 27.8 24.2 -2.1 14 13.6 S 7 9 4 5 1011.8 - 0.0
20/10:00pm 28.9 24.4 -3.3 12 14.5 SSE 11 13 6 7 1011.7 - 0.0
20/09:30pm 29.5 25.4 -2.9 12 14.7 S 9 11 5 6 1011.8 - 0.0
20/09:00pm 30.0 26.0 -2.5 12 15.0 S 9 11 5 6 1011.6 1010.5 0.0
20/08:30pm 30.8 26.7 -3.0 11 15.5 S 9 11 5 6 1011.5 - 0.0
20/08:00pm 32.0 27.9 -3.4 10 16.3 S 9 11 5 6 1011.2 - 0.0
20/07:30pm 33.0 27.8 -2.6 10 16.7 S 15 17 8 9 1010.8 - 0.0
20/07:00pm 34.1 29.6 -3.2 9 17.5 SSW 11 15 6 8 1010.5 - 0.0
20/06:30pm 34.8 29.2 -2.7 9 17.8 S 17 24 9 13 1010.3 - 0.0
20/06:00pm 35.0 30.0 -4.1 8 18.2 S 13 20 7 11 1010.1 1009.0 0.0
20/05:30pm 35.6 30.3 -3.7 8 18.5 SSW 15 24 8 13 1010.1 - 0.0
20/05:00pm 35.7 31.2 -3.6 8 18.5 WNW 11 17 6 9 1010.2 - 0.0
20/04:30pm 35.6 31.0 -3.7 8 18.5 WSW 11 17 6 9 1010.3 - 0.0
20/04:00pm 35.5 30.9 -3.8 8 18.4 W 11 22 6 12 1010.3 - 0.0
20/03:30pm 35.6 29.7 -2.1 9 18.2 S 19 28 10 15 1010.5 - 0.0
20/03:00pm 36.1 31.0 -1.7 9 18.4 W 15 28 8 15 1010.7 1009.6 0.0
20/02:30pm 34.0 30.3 -3.3 9 17.4 E 7 15 4 8 1011.2 - 0.0
20/02:00pm 33.9 28.6 -3.4 9 17.4 S 15 22 8 12 1011.9 - 0.0
20/01:30pm 33.5 28.6 -3.7 9 17.2 SW 13 20 7 11 1012.3 - 0.0
20/01:00pm 33.9 29.9 -2.0 10 17.1 ENE 9 13 5 7 1012.8 - 0.0
20/12:30pm 32.8 28.0 -2.8 10 16.6 SSE 13 20 7 11 1013.3 - 0.0
20/12:00pm 32.3 28.6 -3.2 10 16.4 SE 7 20 4 11 1013.7 1012.6 0.0
20/11:30am 32.8 29.3 -1.5 11 16.4 NE 7 13 4 7 1014.1 - 0.0
20/11:00am 31.6 27.6 -2.4 11 15.9 S 9 20 5 11 1014.5 - 0.0
20/10:30am 31.1 25.9 -2.8 11 15.6 E 15 20 8 11 1015.0 - 0.0
20/10:00am 29.9 24.6 -3.7 11 15.1 ESE 15 22 8 12 1015.2 - 0.0
20/09:30am 29.5 24.3 -2.9 12 14.7 ESE 15 24 8 13 1015.3 - 0.0
20/09:00am 28.3 22.0 -3.8 12 14.2 E 20 28 11 15 1015.4 1014.4 0.0
20/08:30am 27.5 21.3 -3.3 13 13.7 ESE 20 28 11 15 1015.6 - 0.0
20/08:00am 26.3 19.7 -3.3 14 13.0 ESE 22 32 12 17 1015.7 - 0.0
20/07:30am 25.2 18.5 -4.2 14 12.6 ESE 22 33 12 18 1015.5 - 0.0
20/07:00am 24.2 18.1 -4.0 15 12.0 SE 19 26 10 14 1015.1 - 0.0
20/06:30am 23.3 18.3 -3.9 16 11.5 SE 13 20 7 11 1014.8 - 0.0
20/06:00am 22.6 17.2 -4.5 16 11.3 SE 15 24 8 13 1014.4 1013.4 0.0
20/05:30am 22.3 17.3 -3.9 17 11.0 SE 13 19 7 10 1014.1 - 0.0
20/05:00am 22.7 17.3 -4.4 16 11.3 SE 15 20 8 11 1013.7 - 0.0
20/04:30am 23.0 17.5 -5.0 15 11.6 SSE 15 19 8 10 1013.6 - 0.0
20/04:00am 23.6 18.2 -4.5 15 11.8 SSE 15 20 8 11 1013.3 - 0.0
20/03:30am 24.1 18.3 -5.0 14 12.2 SE 17 20 9 11 1013.2 - 0.0
20/03:00am 24.3 18.6 -4.0 15 12.1 SE 17 22 9 12 1013.1 1012.1 0.0
20/02:30am 24.3 19.1 -3.1 16 11.9 SE 15 20 8 11 1013.1 - 0.0
20/02:00am 24.7 18.7 -2.8 16 12.1 SSE 19 24 10 13 1013.3 - 0.0
20/01:30am 25.0 20.1 -0.2 19 11.6 SSE 15 20 8 11 1013.5 - 0.0
20/01:00am 25.7 20.8 -0.4 18 12.1 SSE 15 20 8 11 1013.8 - 0.0
20/12:30am 26.3 21.1 0.1 18 12.3 SSE 17 24 9 13 1014.0 - 0.0
20/12:00am 27.1 21.8 -0.9 16 13.0 SSE 17 26 9 14 1014.1 1013.1 0.0
 
Date/Time
EST
Temp
°C
App
Temp
°C
Dew
Point
Rel
Hum
%
Delta-T
°C
Wind Press
QNH
hPa
Press
MSL
hPa
Rain
since 9 am
mm
Dir
 
Spd
km/h
Gust
km/h
Spd
kts
Gust
kts
19/11:30pm 27.8 22.0 -0.3 16 13.2 S 20 26 11 14 1014.3 - 0.0
19/11:00pm 28.2 22.7 0.9 17 13.2 S 19 22 10 12 1014.5 - 0.0
19/10:30pm 28.5 23.8 1.1 17 13.3 SSE 15 20 8 11 1014.6 - 0.0
19/10:00pm 29.3 23.7 0.9 16 13.8 S 20 24 11 13 1014.5 - 0.0
19/09:30pm 29.7 24.8 2.1 17 13.7 S 17 20 9 11 1014.2 - 0.0
19/09:00pm 30.3 24.0 1.7 16 14.2 S 24 30 13 16 1013.8 1012.8 0.0
19/08:30pm 31.0 25.6 2.3 16 14.4 S 20 28 11 15 1013.6 - 0.0
19/08:00pm 31.4 25.3 2.6 16 14.6 S 24 32 13 17 1013.4 - 0.0
19/07:30pm 32.1 26.1 3.1 16 14.9 S 24 33 13 18 1012.9 - 0.0
19/07:00pm 33.0 26.5 2.9 15 15.5 S 26 35 14 19 1012.6 - 0.0
19/06:30pm 34.0 27.5 2.8 14 16.1 SSW 26 33 14 18 1012.2 - 0.0
19/06:00pm 34.7 28.5 2.3 13 16.7 SW 24 33 13 18 1011.8 1010.7 0.0
19/05:30pm 35.5 28.7 2.9 13 17.0 SW 28 37 15 20 1011.5 - 0.0
19/05:00pm 36.1 29.5 2.2 12 17.6 WSW 26 35 14 19 1011.3 - 0.0
19/04:30pm 36.5 29.6 2.5 12 17.7 SW 28 37 15 20 1011.3 - 0.0
19/04:00pm 36.6 30.9 2.6 12 17.8 WSW 22 32 12 17 1011.5 - 0.0
19/03:30pm 37.2 31.2 3.1 12 18.0 WSW 24 43 13 23 1011.7 - 0.0
19/03:02pm 37.1 30.3 3.0 12 18.0 SSW 28 46 15 25 1011.9 - 0.0
19/03:00pm 36.9 30.4 2.8 12 17.9 SSW 26 39 14 21 1011.9 1010.8 0.0
19/02:30pm 35.8 32.4 2.0 12 17.4 WSW 9 19 5 10 1012.2 - 0.0
19/02:00pm 35.6 31.0 1.8 12 17.3 S 15 24 8 13 1012.6 - 0.0
19/01:30pm 35.6 31.4 1.8 12 17.3 WSW 13 22 7 12 1012.8 - 0.0
19/01:00pm 34.8 31.3 1.2 12 17.0 WNW 9 20 5 11 1013.1 - 0.0
19/12:30pm 33.6 29.2 0.3 12 16.5 ESE 13 20 7 11 1013.4 - 0.0
19/12:00pm 34.2 30.2 0.8 12 16.7 SW 11 19 6 10 1013.9 1012.9 0.0
19/11:30am 33.4 29.9 1.3 13 16.1 ESE 9 20 5 11 1014.2 - 0.0

Other Formats:

Comma delimited format used in spreadsheet applications
http://www.bom.gov.au/fwo/IDQ60801/IDQ60801.95492.axf

JavaScript Object Notation format (JSON) in row-major order
http://www.bom.gov.au/fwo/IDQ60801/IDQ60801.95492.json